createdAt,value
2023-09-08T00:00:45.894Z,17.21
2023-09-08T00:05:46.193Z,17.12
2023-09-08T00:10:45.988Z,16.94
2023-09-08T00:15:45.935Z,16.81
2023-09-08T00:20:46.759Z,16.59
2023-09-08T00:25:45.880Z,16.41
2023-09-08T00:30:45.916Z,16.35
2023-09-08T00:35:48.803Z,16.33
2023-09-08T00:40:45.954Z,16.09
2023-09-08T00:45:47.155Z,16.05
2023-09-08T00:50:45.927Z,16.03
2023-09-08T00:55:46.007Z,15.97
2023-09-08T01:00:46.003Z,15.97
2023-09-08T01:05:47.719Z,16.02
2023-09-08T01:10:46.076Z,15.85
2023-09-08T01:15:45.987Z,15.68
2023-09-08T01:20:53.753Z,15.5
2023-09-08T01:25:49.094Z,15.31
2023-09-08T01:30:46.124Z,15.17
2023-09-08T01:35:46.360Z,15.02
2023-09-08T01:40:45.923Z,14.96
2023-09-08T01:45:46.000Z,14.93
2023-09-08T01:50:46.070Z,14.83
2023-09-08T01:55:46.478Z,14.83
2023-09-08T02:00:45.964Z,14.85
2023-09-08T02:05:45.982Z,14.93
2023-09-08T02:10:47.741Z,14.8
2023-09-08T02:15:46.188Z,14.72
2023-09-08T02:20:46.007Z,14.67
2023-09-08T02:25:45.987Z,14.64
2023-09-08T02:30:46.004Z,14.7
2023-09-08T02:35:45.968Z,14.63
2023-09-08T02:40:46.024Z,14.53
2023-09-08T02:45:46.168Z,14.45
2023-09-08T02:50:46.015Z,14.38
2023-09-08T02:55:46.042Z,14.41
2023-09-08T03:00:46.509Z,14.55
2023-09-08T03:05:46.297Z,14.48
2023-09-08T03:10:46.436Z,14.4
2023-09-08T03:15:46.056Z,14.33
2023-09-08T03:20:46.061Z,14.26
2023-09-08T03:25:46.178Z,14.19
2023-09-08T03:30:46.628Z,14.18
2023-09-08T03:35:46.046Z,14.16
2023-09-08T03:40:46.100Z,14.17
2023-09-08T03:45:46.404Z,14.13
2023-09-08T03:50:46.430Z,14.13
2023-09-08T03:55:46.113Z,14.17
2023-09-08T04:00:46.129Z,14.08
2023-09-08T04:05:46.065Z,14.06
2023-09-08T04:10:46.105Z,14.09
2023-09-08T04:15:46.093Z,14.11
2023-09-08T04:20:46.198Z,14.14
2023-09-08T04:25:46.118Z,14.12
2023-09-08T04:30:46.217Z,14.03
2023-09-08T04:35:46.141Z,14.04
2023-09-08T04:40:49.818Z,14.09
2023-09-08T04:45:46.160Z,14.11
2023-09-08T04:50:46.098Z,14.09
2023-09-08T04:55:46.079Z,14.02
2023-09-08T05:00:46.336Z,13.97
2023-09-08T05:05:46.209Z,14.02
2023-09-08T05:10:46.162Z,14.01
2023-09-08T05:15:49.536Z,14.18
2023-09-08T05:20:46.135Z,14.3
2023-09-08T05:25:46.500Z,14.33
2023-09-08T05:30:46.245Z,14.44
2023-09-08T05:35:46.685Z,14.55
2023-09-08T05:40:46.134Z,14.79
2023-09-08T05:45:46.170Z,14.99
2023-09-08T05:50:46.243Z,15.11
2023-09-08T05:55:46.221Z,15.26
2023-09-08T06:00:46.238Z,15.41
2023-09-08T06:05:46.287Z,15.61
2023-09-08T06:10:46.160Z,15.78
2023-09-08T06:15:46.360Z,15.94
2023-09-08T06:20:48.284Z,16.17
2023-09-08T06:25:46.217Z,16.54
2023-09-08T06:30:46.407Z,18.7
2023-09-08T06:35:46.257Z,20.9
2023-09-08T06:40:46.260Z,22.16
2023-09-08T06:45:46.406Z,23.12
2023-09-08T06:50:46.323Z,24.19
2023-09-08T06:55:46.195Z,24.96
2023-09-08T07:00:46.571Z,25.3
2023-09-08T07:05:46.496Z,25.78
2023-09-08T07:10:46.334Z,26.34
2023-09-08T07:15:46.304Z,26.17
2023-09-08T07:20:46.293Z,27.45
2023-09-08T07:25:49.824Z,27.91
2023-09-08T07:30:46.375Z,28.27
2023-09-08T07:35:46.537Z,28.97
2023-09-08T07:40:46.381Z,29.46
2023-09-08T07:45:46.326Z,29.95
2023-09-08T07:50:46.398Z,30.41
2023-09-08T07:55:46.330Z,30.22
2023-09-08T08:00:46.340Z,30.69
2023-09-08T08:05:46.364Z,31.45
2023-09-08T08:10:46.484Z,31.52
2023-09-08T08:15:48.192Z,31.61
2023-09-08T08:20:46.425Z,31.61
2023-09-08T08:25:46.504Z,30.57
2023-09-08T08:30:49.183Z,31.51
2023-09-08T08:35:46.356Z,32.32
2023-09-08T08:40:46.844Z,31.53
2023-09-08T08:45:47.316Z,31.48
2023-09-08T08:50:46.782Z,31.62
2023-09-08T08:55:46.671Z,31.9
2023-09-08T09:00:46.771Z,32.52
2023-09-08T09:05:48.392Z,32.38
2023-09-08T09:10:46.409Z,32.75
2023-09-08T09:15:47.869Z,33.27
2023-09-08T09:20:56.802Z,33.65
2023-09-08T09:25:46.542Z,34.17
2023-09-08T09:30:56.298Z,32.98
2023-09-08T09:35:52.619Z,33.82
2023-09-08T09:40:46.428Z,33.48
2023-09-08T09:45:47.419Z,34.76
2023-09-08T09:50:47.238Z,35.03
2023-09-08T09:55:47.102Z,34.41
2023-09-08T10:00:49.191Z,34.87
2023-09-08T10:05:48.218Z,34.48
2023-09-08T10:10:49.081Z,34.72
2023-09-08T10:15:47.074Z,34.25
2023-09-08T10:20:46.524Z,34.79
2023-09-08T10:25:54.134Z,34.38
2023-09-08T10:30:47.039Z,34.59
2023-09-08T10:35:47.396Z,34.59
2023-09-08T10:40:46.709Z,34.62
2023-09-08T10:45:46.634Z,35.22
2023-09-08T10:50:47.629Z,35.45
2023-09-08T10:56:11.280Z,34.84
2023-09-08T11:00:58.104Z,35.25
2023-09-08T11:05:46.479Z,34.95
2023-09-08T11:10:46.543Z,34.7
2023-09-08T11:15:46.465Z,34.34
2023-09-08T11:20:46.569Z,34.97
2023-09-08T11:25:46.556Z,35.27
2023-09-08T11:30:47.285Z,35.99
2023-09-08T11:35:46.600Z,35.55
2023-09-08T11:40:46.803Z,35.35
2023-09-08T11:45:47.907Z,35.03
2023-09-08T11:50:46.750Z,34.65
2023-09-08T11:55:47.486Z,35.12
2023-09-08T12:00:48.743Z,33.74
2023-09-08T12:05:47.000Z,33.94
2023-09-08T12:10:47.202Z,34.96
2023-09-08T12:15:47.198Z,35.82
2023-09-08T12:20:46.896Z,34.97
2023-09-08T12:25:52.894Z,34.15
2023-09-08T12:30:46.690Z,34.32
2023-09-08T12:35:47.231Z,34.22
2023-09-08T12:40:46.729Z,35.05
2023-09-08T12:45:47.882Z,34.8
2023-09-08T12:50:46.617Z,34.5
2023-09-08T12:55:46.636Z,34.34
2023-09-08T13:00:47.344Z,35.02
2023-09-08T13:05:46.671Z,34.9
2023-09-08T13:10:46.769Z,35.32
2023-09-08T13:15:46.697Z,35.13
2023-09-08T13:20:46.711Z,34.86
2023-09-08T13:25:47.158Z,34.63
2023-09-08T13:30:46.724Z,35.25
2023-09-08T13:35:46.700Z,34.9
2023-09-08T13:40:46.691Z,34.81
2023-09-08T13:45:47.389Z,34.22
2023-09-08T13:50:47.780Z,34.58
2023-09-08T13:55:50.560Z,34.56
2023-09-08T14:00:47.768Z,34.68
2023-09-08T14:05:50.291Z,34.31
2023-09-08T14:10:52.716Z,34.18
2023-09-08T14:15:46.845Z,34.77
2023-09-08T14:20:46.790Z,34.81
2023-09-08T14:25:46.731Z,34.79
2023-09-08T14:30:46.802Z,34.05
2023-09-08T14:35:52.425Z,33.66
2023-09-08T14:40:46.716Z,33.7
2023-09-08T14:45:46.724Z,33.63
2023-09-08T14:50:46.858Z,33.16
2023-09-08T14:55:49.459Z,32.62
2023-09-08T15:00:46.894Z,32.65
2023-09-08T15:05:46.819Z,32.3
2023-09-08T15:10:46.739Z,32.75
2023-09-08T15:15:47.242Z,32.44
2023-09-08T15:20:54.372Z,32.77
2023-09-08T15:25:46.826Z,32.23
2023-09-08T15:30:51.116Z,32.53
2023-09-08T15:35:46.919Z,32.65
2023-09-08T15:40:56.839Z,32.02
2023-09-08T15:45:46.898Z,32.17
2023-09-08T15:50:46.850Z,31.82
2023-09-08T15:55:46.937Z,31.97
2023-09-08T16:00:46.898Z,32.03
2023-09-08T16:05:46.893Z,32.18
2023-09-08T16:10:46.883Z,32.07
2023-09-08T16:15:46.874Z,31.72
2023-09-08T16:20:46.931Z,31.42
2023-09-08T16:25:46.838Z,31.07
2023-09-08T16:30:46.919Z,31.05
2023-09-08T16:35:46.930Z,30.89
2023-09-08T16:40:48.508Z,31.24
2023-09-08T16:45:46.957Z,30.85
2023-09-08T16:50:46.952Z,30.52
2023-09-08T16:55:46.983Z,30.25
2023-09-08T17:00:46.941Z,29.77
2023-09-08T17:05:48.207Z,29.31
2023-09-08T17:10:48.893Z,28.49
2023-09-08T17:15:47.048Z,27.82
2023-09-08T17:20:47.083Z,27.21
2023-09-08T17:25:47.092Z,26.69
2023-09-08T17:30:47.021Z,26.17
2023-09-08T17:35:46.977Z,25.74
2023-09-08T17:40:47.029Z,25.39
2023-09-08T17:45:48.657Z,24.99
2023-09-08T17:50:47.009Z,24.61
2023-09-08T17:55:46.971Z,24.23
2023-09-08T18:00:49.274Z,23.88
2023-09-08T18:05:46.983Z,23.57
2023-09-08T18:10:47.405Z,23.3
2023-09-08T18:15:47.085Z,23.02
2023-09-08T18:20:47.660Z,22.75
2023-09-08T18:25:47.058Z,22.51
2023-09-08T18:30:48.438Z,22.3
2023-09-08T18:35:47.060Z,22.09
2023-09-08T18:40:51.477Z,21.88
2023-09-08T18:45:46.988Z,21.71
2023-09-08T18:50:47.482Z,21.54
2023-09-08T18:55:47.135Z,21.43
2023-09-08T19:00:50.188Z,21.3
2023-09-08T19:05:47.034Z,21.15
2023-09-08T19:10:47.116Z,21.03
2023-09-08T19:15:47.517Z,20.89
2023-09-08T19:20:47.108Z,20.76
2023-09-08T19:25:47.089Z,20.64
2023-09-08T19:30:51.316Z,20.5
2023-09-08T19:35:47.104Z,20.34
2023-09-08T19:40:48.483Z,20.25
2023-09-08T19:45:47.120Z,20.13
2023-09-08T19:50:47.932Z,20.02
2023-09-08T19:55:50.513Z,19.91
2023-09-08T20:00:47.131Z,19.81
2023-09-08T20:05:51.023Z,19.76
2023-09-08T20:10:54.784Z,19.68
2023-09-08T20:15:47.161Z,19.59
2023-09-08T20:20:47.183Z,19.52
2023-09-08T20:25:48.041Z,19.45
2023-09-08T20:30:49.644Z,19.35
2023-09-08T20:35:48.511Z,19.27
2023-09-08T20:40:50.759Z,19.21
2023-09-08T20:45:47.229Z,19.25
2023-09-08T20:50:47.133Z,19.21
2023-09-08T20:55:47.150Z,19.12
2023-09-08T21:00:47.156Z,19.04
2023-09-08T21:05:47.233Z,18.97
2023-09-08T21:10:47.143Z,18.85
2023-09-08T21:15:47.219Z,18.74
2023-09-08T21:20:47.310Z,18.63
2023-09-08T21:25:47.299Z,18.54
2023-09-08T21:30:47.385Z,18.48
2023-09-08T21:35:47.240Z,18.47
2023-09-08T21:40:47.293Z,18.44
2023-09-08T21:45:51.919Z,18.36
2023-09-08T21:50:47.242Z,18.25
2023-09-08T21:55:47.250Z,18.12
2023-09-08T22:00:47.631Z,18.02
2023-09-08T22:05:47.299Z,17.91
2023-09-08T22:10:47.242Z,17.78
2023-09-08T22:15:47.319Z,17.68
2023-09-08T22:20:47.219Z,17.59
2023-09-08T22:25:47.227Z,17.52
2023-09-08T22:30:47.225Z,17.48
2023-09-08T22:35:47.200Z,17.43
2023-09-08T22:40:48.544Z,17.38
2023-09-08T22:45:49.901Z,17.32
2023-09-08T22:50:47.413Z,17.28
2023-09-08T22:55:47.578Z,17.28
2023-09-08T23:00:47.291Z,17.32
2023-09-08T23:05:47.337Z,17.35
2023-09-08T23:10:47.268Z,17.29
2023-09-08T23:15:51.243Z,17.16
2023-09-08T23:20:47.261Z,17.08
2023-09-08T23:25:47.417Z,17.02
2023-09-08T23:30:47.361Z,16.98
2023-09-08T23:35:47.407Z,16.94
2023-09-08T23:40:47.313Z,16.9
2023-09-08T23:45:51.482Z,16.9
2023-09-08T23:50:57.842Z,16.84
2023-09-08T23:55:47.344Z,16.78
